createdAt,value
2017-12-20T00:00:49.596Z,102632.59
2017-12-20T00:03:17.125Z,102633.33
2017-12-20T00:05:44.825Z,102637.89
2017-12-20T00:08:12.339Z,102639.72
2017-12-20T00:10:39.918Z,102642.47
2017-12-20T00:13:07.517Z,102649.45
2017-12-20T00:15:35.040Z,102649.05
2017-12-20T00:18:02.708Z,102641.11
2017-12-20T00:20:30.232Z,102644.37
2017-12-20T00:22:57.822Z,102654.30
2017-12-20T00:25:25.624Z,102650.63
2017-12-20T00:27:53.152Z,102650.98
2017-12-20T00:30:20.691Z,102646.16
2017-12-20T00:32:48.632Z,102651.21
2017-12-20T00:35:16.387Z,102644.49
2017-12-20T00:37:43.922Z,102639.85
2017-12-20T00:40:11.550Z,102634.18
2017-12-20T00:42:39.545Z,102635.04
2017-12-20T00:45:07.103Z,102634.45
2017-12-20T00:47:34.640Z,102632.95
2017-12-20T00:50:02.279Z,102633.25
2017-12-20T00:52:29.808Z,102629.92
2017-12-20T00:54:57.429Z,102629.77
2017-12-20T00:57:24.948Z,102631.72
2017-12-20T00:59:52.486Z,102637.56
2017-12-20T01:02:20.731Z,102636.55
2017-12-20T01:04:48.258Z,102633.05
2017-12-20T01:07:15.918Z,102642.83
2017-12-20T01:09:43.489Z,102643.45
2017-12-20T01:12:11.121Z,102644.00
2017-12-20T01:14:38.648Z,102653.12
2017-12-20T01:17:06.592Z,102650.96
2017-12-20T01:19:34.218Z,102657.66
2017-12-20T01:22:01.752Z,102654.32
2017-12-20T01:24:29.713Z,102657.66
2017-12-20T01:26:57.249Z,102654.32
2017-12-20T01:29:24.771Z,102653.52
2017-12-20T01:31:52.401Z,102652.97
2017-12-20T01:34:19.929Z,102659.38
2017-12-20T01:36:47.528Z,102648.84
2017-12-20T01:39:15.109Z,102664.64
2017-12-20T01:41:42.760Z,102659.27
2017-12-20T01:44:10.297Z,102658.56
2017-12-20T01:46:37.816Z,102659.59
2017-12-20T01:49:05.391Z,102658.39
2017-12-20T01:51:33.063Z,102654.63
2017-12-20T01:54:00.636Z,102650.00
2017-12-20T01:56:28.296Z,102645.24
2017-12-20T01:58:55.840Z,102640.02
2017-12-20T02:01:23.393Z,102636.29
2017-12-20T02:03:50.956Z,102637.20
2017-12-20T02:06:18.972Z,102628.20
2017-12-20T02:08:46.605Z,102625.06
2017-12-20T02:11:14.132Z,102622.43
2017-12-20T02:13:42.092Z,102619.06
2017-12-20T02:16:09.672Z,102617.67
2017-12-20T02:18:37.198Z,102622.09
2017-12-20T02:21:05.188Z,102622.43
2017-12-20T02:23:32.733Z,102625.47
2017-12-20T02:26:00.278Z,102627.08
2017-12-20T02:28:28.360Z,102622.83
2017-12-20T02:30:55.921Z,102615.95
2017-12-20T02:33:30.482Z,102613.31
2017-12-20T02:35:58.101Z,102611.78
2017-12-20T02:38:35.852Z,102602.27
2017-12-20T02:41:07.064Z,102600.84
2017-12-20T02:43:34.626Z,102597.98
2017-12-20T02:46:02.777Z,102597.39
2017-12-20T02:48:30.324Z,102601.94
2017-12-20T02:50:57.884Z,102608.41
2017-12-20T02:53:25.465Z,102614.25
2017-12-20T02:55:53.181Z,102618.32
2017-12-20T02:58:20.833Z,102626.40
2017-12-20T03:00:48.380Z,102627.42
2017-12-20T03:03:16.593Z,102626.28
2017-12-20T03:05:44.129Z,102630.47
2017-12-20T03:08:11.739Z,102624.09
2017-12-20T03:10:39.719Z,102626.55
2017-12-20T03:13:07.261Z,102617.00
2017-12-20T03:15:34.893Z,102615.51
2017-12-20T03:18:02.463Z,102612.69
2017-12-20T03:20:30.178Z,102614.23
2017-12-20T03:22:57.709Z,102612.88
2017-12-20T03:25:25.384Z,102615.44
2017-12-20T03:27:52.993Z,102615.84
2017-12-20T03:30:20.588Z,102616.24
2017-12-20T03:32:48.133Z,102616.64
2017-12-20T03:35:15.709Z,102615.84
2017-12-20T03:37:43.279Z,102611.27
2017-12-20T03:40:10.808Z,102611.46
2017-12-20T03:42:38.331Z,102606.84
2017-12-20T03:45:05.948Z,102607.32
2017-12-20T03:47:33.473Z,102614.71
2017-12-20T03:50:00.995Z,102617.86
2017-12-20T03:52:28.567Z,102626.99
2017-12-20T03:54:56.125Z,102627.36
2017-12-20T03:57:24.045Z,102627.18
2017-12-20T03:59:51.584Z,102631.23
2017-12-20T04:02:19.112Z,102624.66
2017-12-20T04:04:47.165Z,102631.02
2017-12-20T04:07:14.696Z,102623.95
2017-12-20T04:09:42.383Z,102629.59
2017-12-20T04:12:09.962Z,102635.77
2017-12-20T04:14:37.541Z,102638.52
2017-12-20T04:17:05.069Z,102636.69
2017-12-20T04:19:32.619Z,102644.48
2017-12-20T04:22:00.249Z,102647.34
2017-12-20T04:24:27.800Z,102639.66
2017-12-20T04:26:55.328Z,102644.63
2017-12-20T04:29:22.910Z,102638.23
2017-12-20T04:31:50.446Z,102646.68
2017-12-20T04:34:18.748Z,102638.08
2017-12-20T04:36:46.275Z,102639.44
2017-12-20T04:39:13.801Z,102632.66
2017-12-20T04:41:41.377Z,102632.11
2017-12-20T04:44:08.948Z,102640.97
2017-12-20T04:46:36.481Z,102638.81
2017-12-20T04:49:04.115Z,102639.75
2017-12-20T04:51:31.646Z,102640.64
2017-12-20T04:53:59.321Z,102638.73
2017-12-20T04:56:26.904Z,102639.51
2017-12-20T04:58:54.433Z,102643.28
2017-12-20T05:01:21.960Z,102636.28
2017-12-20T05:03:49.523Z,102641.95
2017-12-20T05:06:17.292Z,102640.23
2017-12-20T05:08:44.815Z,102640.02
2017-12-20T05:11:12.374Z,102640.09
2017-12-20T05:13:39.904Z,102635.95
2017-12-20T05:16:07.482Z,102638.19
2017-12-20T05:18:35.015Z,102631.09
2017-12-20T05:21:02.573Z,102634.81
2017-12-20T05:23:30.464Z,102636.98
2017-12-20T05:25:57.992Z,102627.94
2017-12-20T05:28:25.521Z,102627.25
2017-12-20T05:30:53.827Z,102626.66
2017-12-20T05:33:21.381Z,102626.21
2017-12-20T05:35:49.300Z,102627.20
2017-12-20T05:38:17.199Z,102628.34
2017-12-20T05:40:44.801Z,102633.20
2017-12-20T05:43:12.697Z,102642.91
2017-12-20T05:45:40.215Z,102645.20
2017-12-20T05:48:08.237Z,102639.06
2017-12-20T05:50:35.836Z,102644.37
2017-12-20T05:53:03.352Z,102646.89
2017-12-20T05:55:30.872Z,102651.91
2017-12-20T05:57:58.424Z,102657.36
2017-12-20T06:00:26.145Z,102661.13
2017-12-20T06:02:53.723Z,102664.64
2017-12-20T06:05:21.252Z,102658.97
2017-12-20T06:07:48.772Z,102664.34
2017-12-20T06:10:16.347Z,102654.73
2017-12-20T06:12:43.867Z,102657.58
2017-12-20T06:15:11.392Z,102652.79
2017-12-20T06:17:38.936Z,102651.80
2017-12-20T06:20:06.466Z,102651.47
2017-12-20T06:22:34.043Z,102653.92
2017-12-20T06:25:01.571Z,102657.28
2017-12-20T06:27:29.456Z,102654.84
2017-12-20T06:29:57.062Z,102658.57
2017-12-20T06:32:24.582Z,102658.28
2017-12-20T06:34:52.114Z,102664.35
2017-12-20T06:37:19.688Z,102657.36
2017-12-20T06:39:47.210Z,102665.56
2017-12-20T06:42:14.745Z,102665.08
2017-12-20T06:44:42.320Z,102661.83
2017-12-20T06:47:09.852Z,102663.44
2017-12-20T06:49:37.386Z,102660.80
2017-12-20T06:52:05.889Z,102670.02
2017-12-20T06:54:33.901Z,102660.21
2017-12-20T06:57:02.415Z,102653.27
2017-12-20T06:59:30.972Z,102654.91
2017-12-20T07:01:58.508Z,102652.34
2017-12-20T07:04:26.030Z,102645.06
2017-12-20T07:06:54.492Z,102643.45
2017-12-20T07:09:22.017Z,102649.05
2017-12-20T07:11:49.565Z,102648.44
2017-12-20T07:14:17.509Z,102648.55
2017-12-20T07:16:45.032Z,102643.79
2017-12-20T07:19:12.543Z,102651.98
2017-12-20T07:21:40.132Z,102649.72
2017-12-20T07:24:07.661Z,102653.22
2017-12-20T07:26:35.180Z,102660.83
2017-12-20T07:29:02.732Z,102661.02
2017-12-20T07:31:30.271Z,102666.39
2017-12-20T07:33:58.070Z,102671.23
2017-12-20T07:36:25.677Z,102673.09
2017-12-20T07:38:53.204Z,102667.61
2017-12-20T07:41:20.714Z,102669.84
2017-12-20T07:43:48.467Z,102661.56
2017-12-20T07:46:16.139Z,102672.66
2017-12-20T07:48:43.666Z,102674.16
2017-12-20T07:51:11.257Z,102677.12
2017-12-20T07:53:38.883Z,102687.03
2017-12-20T07:56:06.520Z,102685.02
2017-12-20T07:58:34.395Z,102688.56
2017-12-20T08:01:01.911Z,102693.22
2017-12-20T08:03:29.436Z,102690.61
2017-12-20T08:05:57.350Z,102694.05
2017-12-20T08:08:25.207Z,102693.11
2017-12-20T08:10:52.738Z,102696.25
2017-12-20T08:13:20.628Z,102697.57
2017-12-20T08:15:48.157Z,102702.25
2017-12-20T08:18:15.679Z,102705.98
2017-12-20T08:20:43.285Z,102702.86
2017-12-20T08:23:10.804Z,102700.23
2017-12-20T08:25:38.327Z,102694.34
2017-12-20T08:28:06.216Z,102698.30
2017-12-20T08:30:33.749Z,102698.00
2017-12-20T08:33:01.284Z,102699.50
2017-12-20T08:35:29.205Z,102694.23
2017-12-20T08:37:56.738Z,102702.84
2017-12-20T08:40:24.284Z,102703.64
2017-12-20T08:42:52.194Z,102706.22
2017-12-20T08:45:19.782Z,102714.92
2017-12-20T08:47:47.441Z,102718.36
2017-12-20T08:50:14.967Z,102715.25
2017-12-20T08:52:42.864Z,102711.11
2017-12-20T08:55:10.396Z,102717.52
2017-12-20T08:57:37.924Z,102724.86
2017-12-20T09:00:05.492Z,102717.06
2017-12-20T09:02:33.028Z,102732.12
2017-12-20T09:05:00.604Z,102742.45
2017-12-20T09:07:28.175Z,102746.22
2017-12-20T09:09:55.696Z,102751.09
2017-12-20T09:12:23.211Z,102756.44
2017-12-20T09:14:50.804Z,102761.29
2017-12-20T09:17:18.323Z,102769.68
2017-12-20T09:19:45.848Z,102774.76
2017-12-20T09:22:13.547Z,102781.86
2017-12-20T09:24:41.084Z,102787.16
2017-12-20T09:27:08.666Z,102790.78
2017-12-20T09:29:36.217Z,102791.70
2017-12-20T09:32:03.756Z,102798.69
2017-12-20T09:34:31.308Z,102805.48
2017-12-20T09:36:58.838Z,102805.37
2017-12-20T09:39:26.412Z,102802.74
2017-12-20T09:41:53.943Z,102809.42
2017-12-20T09:44:21.476Z,102812.48
2017-12-20T09:46:49.186Z,102818.77
2017-12-20T09:49:16.724Z,102811.67
2017-12-20T09:51:44.257Z,102816.54
2017-12-20T09:54:12.203Z,102811.17
2017-12-20T09:56:39.833Z,102816.09
2017-12-20T09:59:07.402Z,102813.66
2017-12-20T10:01:35.955Z,102804.77
2017-12-20T10:04:04.606Z,102812.55
2017-12-20T10:06:32.946Z,102810.98
2017-12-20T10:09:00.504Z,102799.78
2017-12-20T10:11:29.252Z,102805.65
2017-12-20T10:13:57.224Z,102806.90
2017-12-20T10:16:25.599Z,102816.53
2017-12-20T10:18:53.119Z,102810.23
2017-12-20T10:21:21.351Z,102805.86
2017-12-20T10:23:48.896Z,102815.41
2017-12-20T10:26:16.430Z,102807.30
2017-12-20T10:28:44.042Z,102799.28
2017-12-20T10:31:11.574Z,102792.31
2017-12-20T10:33:39.332Z,102788.16
2017-12-20T10:36:06.930Z,102781.16
2017-12-20T10:38:34.445Z,102788.38
2017-12-20T10:41:01.990Z,102786.91
2017-12-20T10:43:29.543Z,102789.98
2017-12-20T10:45:57.125Z,102781.05
2017-12-20T10:48:24.639Z,102789.77
2017-12-20T10:50:52.171Z,102786.95
2017-12-20T10:53:19.721Z,102788.23
2017-12-20T10:55:47.721Z,102788.86
2017-12-20T10:58:15.240Z,102788.96
2017-12-20T11:00:42.758Z,102795.95
2017-12-20T11:03:10.343Z,102794.64
2017-12-20T11:05:37.871Z,102802.72
2017-12-20T11:08:06.079Z,102804.05
2017-12-20T11:10:33.636Z,102807.20
2017-12-20T11:13:01.172Z,102804.97
2017-12-20T11:15:29.121Z,102808.52
2017-12-20T11:17:56.668Z,102808.09
2017-12-20T11:20:24.222Z,102809.72
2017-12-20T11:22:51.808Z,102801.81
2017-12-20T11:25:19.435Z,102807.09
2017-12-20T11:27:47.307Z,102799.91
2017-12-20T11:30:15.218Z,102795.37
2017-12-20T11:32:42.752Z,102792.30
2017-12-20T11:35:10.263Z,102785.09
2017-12-20T11:37:38.201Z,102777.17
2017-12-20T11:40:06.152Z,102777.10
2017-12-20T11:42:34.128Z,102776.75
2017-12-20T11:45:01.701Z,102772.31
2017-12-20T11:47:29.241Z,102778.39
2017-12-20T11:49:57.418Z,102774.44
2017-12-20T11:52:25.040Z,102772.21
2017-12-20T11:54:52.560Z,102773.97
2017-12-20T11:57:20.085Z,102771.26
2017-12-20T11:59:47.665Z,102772.14
2017-12-20T12:02:15.300Z,102770.96
2017-12-20T12:04:42.816Z,102767.81
2017-12-20T12:07:10.409Z,102759.98
2017-12-20T12:09:38.206Z,102763.13
2017-12-20T12:12:05.731Z,102758.48
2017-12-20T12:14:33.446Z,102757.41
2017-12-20T12:17:00.985Z,102756.28
2017-12-20T12:19:28.507Z,102758.83
2017-12-20T12:21:57.206Z,102754.09
2017-12-20T12:24:24.775Z,102757.60
2017-12-20T12:26:52.301Z,102756.23
2017-12-20T12:29:19.888Z,102754.34
2017-12-20T12:31:47.408Z,102747.52
2017-12-20T12:34:14.980Z,102744.01
2017-12-20T12:36:42.551Z,102741.80
2017-12-20T12:39:10.902Z,102735.91
2017-12-20T12:41:38.487Z,102739.45
2017-12-20T12:44:06.452Z,102741.13
2017-12-20T12:46:33.972Z,102738.29
2017-12-20T12:49:01.613Z,102740.47
2017-12-20T12:51:29.882Z,102742.53
2017-12-20T12:53:57.402Z,102740.76
2017-12-20T12:56:25.359Z,102750.22
2017-12-20T12:58:53.622Z,102751.11
2017-12-20T13:01:21.138Z,102753.60
2017-12-20T13:03:49.083Z,102739.56
2017-12-20T13:06:16.610Z,102732.09
2017-12-20T13:08:44.132Z,102731.08
2017-12-20T13:11:11.672Z,102733.38
2017-12-20T13:13:39.250Z,102730.95
2017-12-20T13:16:07.635Z,102735.53
2017-12-20T13:18:35.177Z,102726.31
2017-12-20T13:21:03.119Z,102721.28
2017-12-20T13:23:30.652Z,102729.44
2017-12-20T13:25:58.169Z,102731.22
2017-12-20T13:28:25.734Z,102737.32
2017-12-20T13:30:53.252Z,102734.56
2017-12-20T13:33:20.784Z,102729.23
2017-12-20T13:35:48.673Z,102734.45
2017-12-20T13:38:16.221Z,102726.01
2017-12-20T13:40:43.741Z,102725.23
2017-12-20T13:43:11.312Z,102736.11
2017-12-20T13:45:38.839Z,102755.66
2017-12-20T13:48:06.375Z,102747.86
2017-12-20T13:50:33.951Z,102746.61
2017-12-20T13:53:01.777Z,102739.78
2017-12-20T13:55:29.304Z,102741.16
2017-12-20T13:57:56.883Z,102732.67
2017-12-20T14:00:24.420Z,102726.16
2017-12-20T14:02:51.948Z,102725.14
2017-12-20T14:05:19.532Z,102730.32
2017-12-20T14:07:47.109Z,102718.59
2017-12-20T14:10:14.699Z,102712.42
2017-12-20T14:12:42.237Z,102701.63
2017-12-20T14:15:09.784Z,102699.24
2017-12-20T14:17:37.356Z,102709.06
2017-12-20T14:20:04.876Z,102715.88
2017-12-20T14:22:32.398Z,102721.31
2017-12-20T14:24:59.972Z,102723.37
2017-12-20T14:27:27.496Z,102724.80
2017-12-20T14:29:55.022Z,102731.52
2017-12-20T14:32:22.588Z,102738.55
2017-12-20T14:34:50.098Z,102735.97
2017-12-20T14:37:17.675Z,102732.67
2017-12-20T14:39:45.196Z,102730.23
2017-12-20T14:42:12.734Z,102731.19
2017-12-20T14:44:40.283Z,102747.27
2017-12-20T14:47:07.804Z,102756.69
2017-12-20T14:49:35.373Z,102753.88
2017-12-20T14:52:02.924Z,102746.73
2017-12-20T14:54:30.470Z,102745.77
2017-12-20T14:56:58.383Z,102734.06
2017-12-20T14:59:25.922Z,102743.22
2017-12-20T15:01:53.450Z,102749.58
2017-12-20T15:04:21.003Z,102736.49
2017-12-20T15:06:48.554Z,102746.60
2017-12-20T15:09:16.540Z,102749.06
2017-12-20T15:11:44.072Z,102747.29
2017-12-20T15:14:11.602Z,102749.80
2017-12-20T15:16:39.186Z,102745.03
2017-12-20T15:19:06.704Z,102749.28
2017-12-20T15:21:34.223Z,102751.98
2017-12-20T15:24:01.780Z,102751.83
2017-12-20T15:26:29.323Z,102750.80
2017-12-20T15:28:56.848Z,102748.81
2017-12-20T15:31:24.418Z,102753.48
2017-12-20T15:33:51.951Z,102756.86
2017-12-20T15:36:19.520Z,102753.42
2017-12-20T15:38:47.075Z,102750.65
2017-12-20T15:41:14.630Z,102753.73
2017-12-20T15:43:42.227Z,102748.31
2017-12-20T15:46:09.749Z,102737.38
2017-12-20T15:48:37.278Z,102735.33
2017-12-20T15:51:04.824Z,102737.39
2017-12-20T15:53:32.368Z,102731.77
2017-12-20T15:55:59.923Z,102734.87
2017-12-20T15:58:27.470Z,102732.81
2017-12-20T16:00:54.996Z,102731.05
2017-12-20T16:03:22.552Z,102737.74
2017-12-20T16:05:50.123Z,102729.94
2017-12-20T16:08:17.659Z,102720.80
2017-12-20T16:10:45.290Z,102725.05
2017-12-20T16:13:12.821Z,102737.69
2017-12-20T16:15:40.368Z,102741.72
2017-12-20T16:18:07.928Z,102743.61
2017-12-20T16:20:35.485Z,102746.13
2017-12-20T16:23:03.076Z,102746.81
2017-12-20T16:25:30.613Z,102748.24
2017-12-20T16:27:58.153Z,102754.23
2017-12-20T16:30:26.136Z,102761.05
2017-12-20T16:32:53.656Z,102756.18
2017-12-20T16:35:21.275Z,102763.41
2017-12-20T16:37:48.816Z,102755.18
2017-12-20T16:40:16.346Z,102756.44
2017-12-20T16:42:43.925Z,102753.63
2017-12-20T16:45:11.462Z,102756.63
2017-12-20T16:47:39.447Z,102763.55
2017-12-20T16:50:06.996Z,102766.56
2017-12-20T16:52:34.525Z,102764.89
2017-12-20T16:55:02.125Z,102772.97
2017-12-20T16:57:29.656Z,102781.06
2017-12-20T16:59:57.202Z,102773.44
2017-12-20T17:02:24.794Z,102777.21
2017-12-20T17:04:52.355Z,102773.94
2017-12-20T17:07:19.879Z,102781.34
2017-12-20T17:09:47.424Z,102790.02
2017-12-20T17:12:14.961Z,102790.75
2017-12-20T17:14:42.537Z,102795.19
2017-12-20T17:17:10.059Z,102795.11
2017-12-20T17:19:37.586Z,102796.00
2017-12-20T17:22:05.140Z,102801.48
2017-12-20T17:24:32.684Z,102798.84
2017-12-20T17:27:00.258Z,102799.15
2017-12-20T17:29:27.781Z,102804.42
2017-12-20T17:31:55.299Z,102811.83
2017-12-20T17:34:22.850Z,102816.22
2017-12-20T17:36:50.378Z,102807.16
2017-12-20T17:39:17.988Z,102799.81
2017-12-20T17:41:45.517Z,102787.11
2017-12-20T17:44:13.039Z,102778.10
2017-12-20T17:46:40.593Z,102783.80
2017-12-20T17:49:08.198Z,102783.17
2017-12-20T17:51:35.724Z,102777.41
2017-12-20T17:54:03.244Z,102777.21
2017-12-20T17:56:30.818Z,102776.72
2017-12-20T17:58:58.344Z,102780.23
2017-12-20T18:01:25.883Z,102770.70
2017-12-20T18:03:53.428Z,102777.89
2017-12-20T18:06:21.003Z,102771.20
2017-12-20T18:08:48.529Z,102769.45
2017-12-20T18:11:16.059Z,102769.31
2017-12-20T18:13:44.012Z,102759.63
2017-12-20T18:16:11.536Z,102752.52
2017-12-20T18:18:39.071Z,102747.90
2017-12-20T18:21:06.652Z,102754.03
2017-12-20T18:23:34.176Z,102745.72
2017-12-20T18:26:01.713Z,102750.94
2017-12-20T18:28:29.296Z,102765.82
2017-12-20T18:30:56.821Z,102767.43
2017-12-20T18:33:24.363Z,102759.44
2017-12-20T18:35:51.935Z,102772.44
2017-12-20T18:38:19.470Z,102772.91
2017-12-20T18:40:46.995Z,102771.39
2017-12-20T18:43:14.571Z,102770.11
2017-12-20T18:45:42.124Z,102776.59
2017-12-20T18:48:09.672Z,102776.19
2017-12-20T18:50:37.239Z,102779.06
2017-12-20T18:53:04.785Z,102789.62
2017-12-20T18:55:32.312Z,102795.78
2017-12-20T18:58:00.108Z,102798.30
2017-12-20T19:00:27.683Z,102800.30
2017-12-20T19:02:55.211Z,102793.33
2017-12-20T19:05:22.876Z,102795.36
2017-12-20T19:07:50.392Z,102806.09
2017-12-20T19:10:18.002Z,102804.47
2017-12-20T19:12:45.580Z,102809.45
2017-12-20T19:15:13.175Z,102802.92
2017-12-20T19:17:40.747Z,102804.27
2017-12-20T19:20:08.263Z,102810.75
2017-12-20T19:22:35.780Z,102810.85
2017-12-20T19:25:03.355Z,102793.98
2017-12-20T19:27:30.879Z,102787.18
2017-12-20T19:29:58.468Z,102780.48
2017-12-20T19:32:26.024Z,102789.50
2017-12-20T19:34:54.409Z,102797.24
2017-12-20T19:37:21.979Z,102811.53
2017-12-20T19:39:49.504Z,102819.67
2017-12-20T19:42:17.088Z,102818.53
2017-12-20T19:44:44.666Z,102819.71
2017-12-20T19:47:12.179Z,102822.20
2017-12-20T19:49:40.198Z,102819.98
2017-12-20T19:52:07.832Z,102806.27
2017-12-20T19:54:35.612Z,102799.14
2017-12-20T19:57:03.188Z,102790.41
2017-12-20T19:59:30.964Z,102775.70
2017-12-20T20:01:58.613Z,102767.69
2017-12-20T20:04:26.166Z,102758.30
2017-12-20T20:06:53.710Z,102758.75
2017-12-20T20:09:21.320Z,102760.81
2017-12-20T20:11:48.928Z,102754.63
2017-12-20T20:14:16.469Z,102759.38
2017-12-20T20:16:43.987Z,102782.38
2017-12-20T20:19:11.612Z,102787.36
2017-12-20T20:21:39.139Z,102783.89
2017-12-20T20:24:06.702Z,102796.36
2017-12-20T20:26:34.469Z,102804.01
2017-12-20T20:29:02.074Z,102793.84
2017-12-20T20:31:29.654Z,102796.26
2017-12-20T20:33:57.171Z,102804.19
2017-12-20T20:36:24.748Z,102807.16
2017-12-20T20:38:52.323Z,102819.23
2017-12-20T20:41:19.839Z,102811.39
2017-12-20T20:43:47.402Z,102797.82
2017-12-20T20:46:14.942Z,102788.53
2017-12-20T20:48:42.557Z,102786.91
2017-12-20T20:51:10.089Z,102766.06
2017-12-20T20:53:37.617Z,102762.28
2017-12-20T20:56:05.192Z,102757.11
2017-12-20T20:58:32.772Z,102752.08
2017-12-20T21:01:00.365Z,102763.60
2017-12-20T21:03:27.888Z,102775.75
2017-12-20T21:05:55.420Z,102782.86
2017-12-20T21:08:23.011Z,102784.41
2017-12-20T21:10:50.581Z,102791.70
2017-12-20T21:13:18.146Z,102786.98
2017-12-20T21:15:45.799Z,102794.86
2017-12-20T21:18:13.323Z,102795.59
2017-12-20T21:20:40.846Z,102791.12
2017-12-20T21:23:08.415Z,102778.50
2017-12-20T21:25:36.002Z,102767.23
2017-12-20T21:28:03.528Z,102762.75
2017-12-20T21:30:31.108Z,102768.91
2017-12-20T21:32:58.628Z,102767.68
2017-12-20T21:35:26.169Z,102768.85
2017-12-20T21:37:53.733Z,102775.11
2017-12-20T21:40:21.362Z,102770.13
2017-12-20T21:42:48.958Z,102759.14
2017-12-20T21:45:16.518Z,102754.02
2017-12-20T21:47:44.147Z,102762.52
2017-12-20T21:50:11.681Z,102769.99
2017-12-20T21:52:39.249Z,102766.73
2017-12-20T21:55:06.823Z,102769.08
2017-12-20T21:57:34.335Z,102782.02
2017-12-20T22:00:01.895Z,102794.64
2017-12-20T22:02:29.419Z,102794.75
2017-12-20T22:04:56.964Z,102806.11
2017-12-20T22:07:24.493Z,102806.10
2017-12-20T22:09:52.110Z,102790.55
2017-12-20T22:12:19.636Z,102798.27
2017-12-20T22:14:47.151Z,102802.55
2017-12-20T22:17:14.804Z,102796.30
2017-12-20T22:19:42.328Z,102794.70
2017-12-20T22:22:09.886Z,102788.31
2017-12-20T22:24:37.489Z,102785.17
2017-12-20T22:27:05.017Z,102782.12
2017-12-20T22:29:32.544Z,102783.45
2017-12-20T22:32:00.119Z,102785.40
2017-12-20T22:34:27.644Z,102791.89
2017-12-20T22:36:55.201Z,102797.44
2017-12-20T22:39:22.761Z,102803.36
2017-12-20T22:41:50.289Z,102806.42
2017-12-20T22:44:17.861Z,102814.64
2017-12-20T22:46:45.384Z,102811.06
2017-12-20T22:49:12.918Z,102805.70
2017-12-20T22:51:40.516Z,102814.92
2017-12-20T22:54:08.077Z,102813.92
2017-12-20T22:56:35.715Z,102806.06
2017-12-20T22:59:03.246Z,102792.45
2017-12-20T23:01:30.764Z,102780.69
2017-12-20T23:03:58.385Z,102763.75
2017-12-20T23:06:25.954Z,102778.69
2017-12-20T23:08:53.544Z,102795.56
2017-12-20T23:11:21.169Z,102796.27
2017-12-20T23:13:48.713Z,102787.00
2017-12-20T23:16:16.264Z,102780.84
2017-12-20T23:18:43.846Z,102774.16
2017-12-20T23:21:11.420Z,102774.28
2017-12-20T23:23:38.954Z,102772.98
2017-12-20T23:26:06.470Z,102764.73
2017-12-20T23:28:34.032Z,102758.44
2017-12-20T23:31:01.586Z,102761.33
2017-12-20T23:33:29.107Z,102782.47
2017-12-20T23:35:56.652Z,102787.63
2017-12-20T23:38:24.179Z,102795.78
2017-12-20T23:40:51.722Z,102798.90
2017-12-20T23:43:19.327Z,102795.97
2017-12-20T23:45:46.896Z,102791.47
2017-12-20T23:48:14.560Z,102792.45
2017-12-20T23:50:42.147Z,102797.09
2017-12-20T23:53:09.759Z,102803.08
2017-12-20T23:55:37.283Z,102800.44
2017-12-20T23:58:04.804Z,102791.89
